createdAt,value
2022-10-03T00:02:15.918Z,9.14
2022-10-03T00:05:00.378Z,9.18
2022-10-03T00:07:54.977Z,9.21
2022-10-03T00:10:34.934Z,9.22
2022-10-03T00:13:19.146Z,9.25
2022-10-03T00:15:57.170Z,9.26
2022-10-03T00:18:41.193Z,9.29
2022-10-03T00:21:28.143Z,9.32
2022-10-03T00:24:12.294Z,9.35
2022-10-03T00:26:53.260Z,9.38
2022-10-03T00:29:56.729Z,9.40
2022-10-03T00:32:43.759Z,9.43
2022-10-03T00:35:28.862Z,9.46
2022-10-03T00:38:17.596Z,9.48
2022-10-03T00:41:14.573Z,9.51
2022-10-03T00:44:22.314Z,9.54
2022-10-03T00:47:14.011Z,9.57
2022-10-03T00:50:03.789Z,9.60
2022-10-03T00:52:52.077Z,9.63
2022-10-03T00:55:38.117Z,9.64
2022-10-03T00:58:26.035Z,9.67
2022-10-03T01:01:20.929Z,9.69
2022-10-03T01:04:06.537Z,9.71
2022-10-03T01:06:47.307Z,9.73
2022-10-03T01:09:38.644Z,9.75
2022-10-03T01:12:36.177Z,9.77
2022-10-03T01:15:19.221Z,9.78
2022-10-03T01:18:09.230Z,9.79
2022-10-03T01:20:51.793Z,9.80
2022-10-03T01:23:59.890Z,9.83
2022-10-03T01:26:51.125Z,9.85
2022-10-03T01:29:45.731Z,9.88
2022-10-03T01:32:24.863Z,9.88
2022-10-03T01:35:07.911Z,9.90
2022-10-03T01:37:51.395Z,9.92
2022-10-03T01:40:30.637Z,9.92
2022-10-03T01:43:15.821Z,9.93
2022-10-03T01:46:02.242Z,9.95
2022-10-03T01:48:42.721Z,9.97
2022-10-03T01:51:17.550Z,9.98
2022-10-03T01:54:03.560Z,10.00
2022-10-03T01:56:41.508Z,10.01
2022-10-03T01:59:19.426Z,10.03
2022-10-03T02:01:59.293Z,10.04
2022-10-03T02:04:44.759Z,10.05
2022-10-03T02:07:25.538Z,10.07
2022-10-03T02:10:08.193Z,10.09
2022-10-03T02:12:51.820Z,10.11
2022-10-03T02:15:29.962Z,10.12
2022-10-03T02:18:12.996Z,10.14
2022-10-03T02:20:49.777Z,10.17
2022-10-03T02:23:44.081Z,10.19
2022-10-03T02:26:50.169Z,10.21
2022-10-03T02:29:39.743Z,10.24
2022-10-03T02:32:37.666Z,10.26
2022-10-03T02:35:46.671Z,10.28
2022-10-03T02:38:56.462Z,10.30
2022-10-03T02:41:55.768Z,10.31
2022-10-03T02:44:54.561Z,10.33
2022-10-03T02:48:31.248Z,10.34
2022-10-03T02:51:37.027Z,10.36
2022-10-03T02:54:46.596Z,10.37
2022-10-03T02:58:11.385Z,10.39
2022-10-03T03:01:04.778Z,10.39
2022-10-03T03:03:58.585Z,10.41
2022-10-03T03:06:57.787Z,10.44
2022-10-03T03:09:54.856Z,10.45
2022-10-03T03:12:45.506Z,10.47
2022-10-03T03:15:49.221Z,10.48
2022-10-03T03:18:32.045Z,10.49
2022-10-03T03:21:19.709Z,10.51
2022-10-03T03:24:15.810Z,10.53
2022-10-03T03:27:20.256Z,10.53
2022-10-03T03:30:02.445Z,10.54
2022-10-03T03:32:47.377Z,10.54
2022-10-03T03:35:32.457Z,10.56
2022-10-03T03:38:16.023Z,10.57
2022-10-03T03:41:05.765Z,10.58
2022-10-03T03:44:00.502Z,10.59
2022-10-03T03:46:45.018Z,10.60
2022-10-03T03:49:31.545Z,10.62
2022-10-03T03:52:18.089Z,10.64
2022-10-03T03:55:10.816Z,10.65
2022-10-03T03:58:14.342Z,10.66
2022-10-03T04:01:08.474Z,10.67
2022-10-03T04:03:51.337Z,10.68
2022-10-03T04:06:36.985Z,10.69
2022-10-03T04:09:27.070Z,10.71
2022-10-03T04:12:10.235Z,10.72
2022-10-03T04:15:12.724Z,10.73
2022-10-03T04:18:21.704Z,10.74
2022-10-03T04:21:21.074Z,10.75
2022-10-03T04:24:05.065Z,10.76
2022-10-03T04:26:52.035Z,10.76
2022-10-03T04:29:43.466Z,10.77
2022-10-03T04:32:34.951Z,10.78
2022-10-03T04:35:25.920Z,10.78
2022-10-03T04:38:12.400Z,10.79
2022-10-03T04:40:51.535Z,10.80
2022-10-03T04:43:36.842Z,10.81
2022-10-03T04:46:25.270Z,10.83
2022-10-03T04:49:04.062Z,10.84
2022-10-03T04:51:50.914Z,10.86
2022-10-03T04:54:32.844Z,10.85
2022-10-03T04:57:16.689Z,10.85
2022-10-03T04:59:59.628Z,10.85
2022-10-03T05:02:44.221Z,10.83
2022-10-03T05:05:30.305Z,10.83
2022-10-03T05:08:13.795Z,10.81
2022-10-03T05:10:57.790Z,10.80
2022-10-03T05:13:42.543Z,10.80
2022-10-03T05:16:24.452Z,10.80
2022-10-03T05:19:07.928Z,10.78
2022-10-03T05:21:49.001Z,10.78
2022-10-03T05:24:27.723Z,10.76
2022-10-03T05:27:11.252Z,10.75
2022-10-03T05:29:52.332Z,10.75
2022-10-03T05:32:33.349Z,10.76
2022-10-03T05:35:22.692Z,10.75
2022-10-03T05:38:24.858Z,10.75
2022-10-03T05:41:09.343Z,10.75
2022-10-03T05:43:58.401Z,10.75
2022-10-03T05:46:52.965Z,10.77
2022-10-03T05:49:45.727Z,10.79
2022-10-03T05:52:39.348Z,10.79
2022-10-03T05:55:30.272Z,10.82
2022-10-03T05:58:23.259Z,10.82
2022-10-03T06:01:15.407Z,10.83
2022-10-03T06:04:08.584Z,10.85
2022-10-03T06:06:57.411Z,10.87
2022-10-03T06:09:50.568Z,10.89
2022-10-03T06:12:33.513Z,10.93
2022-10-03T06:15:49.126Z,10.97
2022-10-03T06:19:01.332Z,11.02
2022-10-03T06:22:10.797Z,11.05
2022-10-03T06:25:09.743Z,11.07
2022-10-03T06:28:13.253Z,11.11
2022-10-03T06:31:04.062Z,11.15
2022-10-03T06:34:08.439Z,11.18
2022-10-03T06:37:01.252Z,11.23
2022-10-03T06:40:13.615Z,11.27
2022-10-03T06:43:02.578Z,11.31
2022-10-03T06:46:16.160Z,11.34
2022-10-03T06:49:20.586Z,11.37
2022-10-03T06:52:08.525Z,11.39
2022-10-03T06:55:22.914Z,11.46
2022-10-03T06:58:23.635Z,11.54
2022-10-03T07:01:06.423Z,11.58
2022-10-03T07:04:06.755Z,11.60
2022-10-03T07:06:54.615Z,11.64
2022-10-03T07:10:04.730Z,11.69
2022-10-03T07:12:57.029Z,11.74
2022-10-03T07:16:14.297Z,11.74
2022-10-03T07:19:08.035Z,11.74
2022-10-03T07:22:04.483Z,11.76
2022-10-03T07:25:07.423Z,11.78
2022-10-03T07:27:55.632Z,11.82
2022-10-03T07:30:33.234Z,11.89
2022-10-03T07:33:38.825Z,11.96
2022-10-03T07:37:08.139Z,12.10
2022-10-03T07:40:05.938Z,12.19
2022-10-03T07:43:14.695Z,12.28
2022-10-03T07:46:05.461Z,12.38
2022-10-03T07:49:03.784Z,12.45
2022-10-03T07:51:45.368Z,12.51
2022-10-03T07:54:34.689Z,12.55
2022-10-03T07:57:38.780Z,12.54
2022-10-03T08:00:22.752Z,12.56
2022-10-03T08:03:28.259Z,12.58
2022-10-03T08:06:16.877Z,12.61
2022-10-03T08:09:42.764Z,12.69
2022-10-03T08:13:01.094Z,12.74
2022-10-03T08:15:53.366Z,12.77
2022-10-03T08:18:50.111Z,12.82
2022-10-03T08:21:31.926Z,12.87
2022-10-03T08:24:21.790Z,12.88
2022-10-03T08:27:10.128Z,12.89
2022-10-03T08:30:19.097Z,12.92
2022-10-03T08:33:35.964Z,13.00
2022-10-03T08:36:39.492Z,13.12
2022-10-03T08:39:24.859Z,13.26
2022-10-03T08:42:28.196Z,13.30
2022-10-03T08:45:29.618Z,13.28
2022-10-03T08:48:46.696Z,13.26
2022-10-03T08:51:53.569Z,13.22
2022-10-03T08:55:02.235Z,13.19
2022-10-03T08:58:03.051Z,13.17
2022-10-03T09:00:58.818Z,13.15
2022-10-03T09:04:03.998Z,13.11
2022-10-03T09:07:18.003Z,13.04
2022-10-03T09:10:24.201Z,13.05
2022-10-03T09:13:29.419Z,13.08
2022-10-03T09:16:28.305Z,13.06
2022-10-03T09:19:21.856Z,12.99
2022-10-03T09:22:34.912Z,13.02
2022-10-03T09:25:25.712Z,13.15
2022-10-03T09:28:44.876Z,13.22
2022-10-03T09:31:52.571Z,13.25
2022-10-03T09:34:55.262Z,13.23
2022-10-03T09:37:59.603Z,13.20
2022-10-03T09:41:12.390Z,13.18
2022-10-03T09:44:14.284Z,13.18
2022-10-03T09:47:33.300Z,13.18
2022-10-03T09:50:54.135Z,13.22
2022-10-03T09:54:04.008Z,13.27
2022-10-03T09:57:12.321Z,13.33
2022-10-03T10:00:23.234Z,13.42
2022-10-03T10:03:25.806Z,13.52
2022-10-03T10:06:12.333Z,13.59
2022-10-03T10:09:08.798Z,13.64
2022-10-03T10:12:04.528Z,13.69
2022-10-03T10:14:58.131Z,13.70
2022-10-03T10:17:55.945Z,13.70
2022-10-03T10:21:29.223Z,13.72
2022-10-03T10:24:17.838Z,13.79
2022-10-03T10:27:23.242Z,13.85
2022-10-03T10:30:10.843Z,13.90
2022-10-03T10:33:32.465Z,13.91
2022-10-03T10:36:44.713Z,13.91
2022-10-03T10:39:49.448Z,13.91
2022-10-03T10:42:58.355Z,13.87
2022-10-03T10:46:00.106Z,13.88
2022-10-03T10:49:05.290Z,13.88
2022-10-03T10:52:21.261Z,13.85
2022-10-03T10:55:22.250Z,13.79
2022-10-03T10:58:30.033Z,13.80
2022-10-03T11:01:47.294Z,13.77
2022-10-03T11:04:46.713Z,13.72
2022-10-03T11:08:15.997Z,13.66
2022-10-03T11:11:07.721Z,13.68
2022-10-03T11:14:09.372Z,13.74
2022-10-03T11:17:18.101Z,13.89
2022-10-03T11:20:34.770Z,13.95
2022-10-03T11:23:53.341Z,13.94
2022-10-03T11:26:59.556Z,13.94
2022-10-03T11:30:05.094Z,13.91
2022-10-03T11:33:09.639Z,13.82
2022-10-03T11:36:08.337Z,13.55
2022-10-03T11:38:48.406Z,13.05
2022-10-03T11:41:31.968Z,12.66
2022-10-03T11:44:17.709Z,12.32
2022-10-03T11:47:14.840Z,11.99
2022-10-03T11:50:13.975Z,11.79
2022-10-03T11:53:03.433Z,11.69
2022-10-03T11:55:41.283Z,11.66
2022-10-03T11:58:34.088Z,11.63
2022-10-03T12:01:38.196Z,11.63
2022-10-03T12:04:22.069Z,11.68
2022-10-03T12:07:19.886Z,11.73
2022-10-03T12:10:05.972Z,11.83
2022-10-03T12:12:43.586Z,11.95
2022-10-03T12:15:36.542Z,12.07
2022-10-03T12:18:18.082Z,12.16
2022-10-03T12:21:09.522Z,12.22
2022-10-03T12:24:25.261Z,12.30
2022-10-03T12:27:04.736Z,12.37
2022-10-03T12:29:41.143Z,12.39
2022-10-03T12:32:25.508Z,12.41
2022-10-03T12:35:09.159Z,12.42
2022-10-03T12:37:55.265Z,12.43
2022-10-03T12:40:35.010Z,12.45
2022-10-03T12:43:20.717Z,12.47
2022-10-03T12:45:59.124Z,12.53
2022-10-03T12:48:48.031Z,12.59
2022-10-03T12:51:31.971Z,12.67
2022-10-03T12:54:17.787Z,12.74
2022-10-03T12:56:59.402Z,12.75
2022-10-03T12:59:42.272Z,12.79
2022-10-03T13:02:32.815Z,12.85
2022-10-03T13:05:37.087Z,12.94
2022-10-03T13:08:26.428Z,13.02
2022-10-03T13:11:08.485Z,13.09
2022-10-03T13:14:01.610Z,13.10
2022-10-03T13:16:39.488Z,13.08
2022-10-03T13:19:17.695Z,13.01
2022-10-03T13:22:09.920Z,12.97
2022-10-03T13:24:49.743Z,12.98
2022-10-03T13:27:33.506Z,12.98
2022-10-03T13:30:15.389Z,13.06
2022-10-03T13:32:52.003Z,13.10
2022-10-03T13:35:49.401Z,13.13
2022-10-03T13:38:47.942Z,13.12
2022-10-03T13:41:29.467Z,13.15
2022-10-03T13:44:06.477Z,13.19
2022-10-03T13:46:48.706Z,13.21
2022-10-03T13:49:32.244Z,13.27
2022-10-03T13:52:16.511Z,13.33
2022-10-03T13:55:11.230Z,13.37
2022-10-03T13:57:52.730Z,13.43
2022-10-03T14:00:26.660Z,13.50
2022-10-03T14:03:13.846Z,13.54
2022-10-03T14:06:10.883Z,13.60
2022-10-03T14:09:01.078Z,13.66
2022-10-03T14:11:44.443Z,13.71
2022-10-03T14:14:35.865Z,13.72
2022-10-03T14:17:13.071Z,13.67
2022-10-03T14:19:59.868Z,13.65
2022-10-03T14:22:43.980Z,13.61
2022-10-03T14:25:24.246Z,13.60
2022-10-03T14:28:02.258Z,13.60
2022-10-03T14:31:06.134Z,13.61
2022-10-03T14:33:47.598Z,13.61
2022-10-03T14:36:37.472Z,13.61
2022-10-03T14:39:23.892Z,13.63
2022-10-03T14:42:23.421Z,13.64
2022-10-03T14:44:59.629Z,13.65
2022-10-03T14:47:37.433Z,13.62
2022-10-03T14:50:18.516Z,13.61
2022-10-03T14:53:02.247Z,13.59
2022-10-03T14:55:44.655Z,13.58
2022-10-03T14:58:22.956Z,13.56
2022-10-03T15:01:02.847Z,13.56
2022-10-03T15:03:39.845Z,13.56
2022-10-03T15:06:35.875Z,13.55
2022-10-03T15:09:12.901Z,13.52
2022-10-03T15:11:52.500Z,13.48
2022-10-03T15:14:27.504Z,13.43
2022-10-03T15:17:02.619Z,13.38
2022-10-03T15:19:44.447Z,13.33
2022-10-03T15:22:29.306Z,13.29
2022-10-03T15:25:07.130Z,13.24
2022-10-03T15:27:43.826Z,13.20
2022-10-03T15:30:25.857Z,13.16
2022-10-03T15:33:11.565Z,13.12
2022-10-03T15:35:48.124Z,13.09
2022-10-03T15:38:27.550Z,13.08
2022-10-03T15:41:12.549Z,13.06
2022-10-03T15:43:53.371Z,13.04
2022-10-03T15:46:34.830Z,13.03
2022-10-03T15:49:26.226Z,13.01
2022-10-03T15:52:01.930Z,12.99
2022-10-03T15:54:38.867Z,12.96
2022-10-03T15:57:22.757Z,12.92
2022-10-03T16:00:03.051Z,12.88
2022-10-03T16:02:49.996Z,12.84
2022-10-03T16:05:28.857Z,12.78
2022-10-03T16:08:06.907Z,12.73
2022-10-03T16:10:42.645Z,12.68
2022-10-03T16:13:32.080Z,12.62
2022-10-03T16:16:34.513Z,12.55
2022-10-03T16:19:25.951Z,12.50
2022-10-03T16:22:05.825Z,12.43
2022-10-03T16:24:44.545Z,12.37
2022-10-03T16:27:21.438Z,12.33
2022-10-03T16:30:04.259Z,12.26
2022-10-03T16:32:45.323Z,12.21
2022-10-03T16:35:31.423Z,12.17
2022-10-03T16:38:08.258Z,12.15
2022-10-03T16:40:40.550Z,12.12
2022-10-03T16:43:19.458Z,12.12
2022-10-03T16:45:52.288Z,12.11
2022-10-03T16:48:46.947Z,12.10
2022-10-03T16:51:22.687Z,12.11
2022-10-03T16:53:57.038Z,12.10
2022-10-03T16:56:38.184Z,12.10
2022-10-03T16:59:19.119Z,12.07
2022-10-03T17:01:55.591Z,12.07
2022-10-03T17:04:33.905Z,12.05
2022-10-03T17:07:09.497Z,12.06
2022-10-03T17:09:46.486Z,12.04
2022-10-03T17:14:01.252Z,12.04
2022-10-03T17:16:45.172Z,12.01
2022-10-03T17:19:30.535Z,11.99
2022-10-03T17:22:13.029Z,11.97
2022-10-03T17:24:50.225Z,11.97
2022-10-03T17:27:29.994Z,11.97
2022-10-03T17:30:06.244Z,11.96
2022-10-03T17:32:43.293Z,11.96
2022-10-03T17:35:21.620Z,11.93
2022-10-03T17:41:22.481Z,11.91
2022-10-03T17:44:17.384Z,11.90
2022-10-03T17:46:59.981Z,11.89
2022-10-03T17:49:46.119Z,11.85
2022-10-03T17:52:21.453Z,11.81
2022-10-03T17:54:57.113Z,11.79
2022-10-03T17:57:37.007Z,11.76
2022-10-03T18:00:18.391Z,11.74
2022-10-03T18:02:58.810Z,11.71
2022-10-03T18:05:35.501Z,11.69
2022-10-03T18:08:14.475Z,11.67
2022-10-03T18:10:56.020Z,11.64
2022-10-03T18:13:37.188Z,11.62
2022-10-03T18:16:24.031Z,11.58
2022-10-03T18:19:23.486Z,11.59
2022-10-03T18:22:04.951Z,11.56
2022-10-03T18:24:55.183Z,11.55
2022-10-03T18:28:05.260Z,11.56
2022-10-03T18:30:46.374Z,11.55
2022-10-03T18:33:21.601Z,11.55
2022-10-03T18:35:54.647Z,11.55
2022-10-03T18:38:28.939Z,11.54
2022-10-03T18:41:02.883Z,11.53
2022-10-03T18:43:45.232Z,11.52
2022-10-03T18:46:22.043Z,11.51
2022-10-03T18:49:32.989Z,11.47
2022-10-03T18:52:00.418Z,11.44
2022-10-03T18:54:45.137Z,11.43
2022-10-03T18:57:24.634Z,11.40
2022-10-03T19:00:02.867Z,11.36
2022-10-03T19:02:39.476Z,11.32
2022-10-03T19:05:19.187Z,11.29
2022-10-03T19:07:58.117Z,11.27
2022-10-03T19:10:38.530Z,11.26
2022-10-03T19:13:19.553Z,11.25
2022-10-03T19:16:13.157Z,11.23
2022-10-03T19:18:50.721Z,11.22
2022-10-03T19:21:23.442Z,11.20
2022-10-03T19:24:05.549Z,11.18
2022-10-03T19:26:40.134Z,11.15
2022-10-03T19:29:14.654Z,11.13
2022-10-03T19:31:59.006Z,11.10
2022-10-03T19:34:37.136Z,11.07
2022-10-03T19:37:17.190Z,11.04
2022-10-03T19:39:49.433Z,11.02
2022-10-03T19:42:40.342Z,10.98
2022-10-03T19:45:15.258Z,10.95
2022-10-03T19:47:56.581Z,10.93
2022-10-03T19:50:32.963Z,10.91
2022-10-03T19:53:16.130Z,10.90
2022-10-03T19:55:51.281Z,10.88
2022-10-03T19:58:25.217Z,10.87
2022-10-03T20:00:59.985Z,10.85
2022-10-03T20:03:44.138Z,10.82
2022-10-03T20:06:24.125Z,10.79
2022-10-03T20:09:01.397Z,10.75
2022-10-03T20:11:45.771Z,10.72
2022-10-03T20:14:23.738Z,10.68
2022-10-03T20:17:01.121Z,10.65
2022-10-03T20:19:38.912Z,10.61
2022-10-03T20:22:15.544Z,10.58
2022-10-03T20:24:48.191Z,10.56
2022-10-03T20:27:32.879Z,10.52
2022-10-03T20:30:31.563Z,10.46
2022-10-03T20:33:05.370Z,10.41
2022-10-03T20:35:52.432Z,10.34
2022-10-03T20:38:33.653Z,10.28
2022-10-03T20:41:10.673Z,10.21
2022-10-03T20:43:47.687Z,10.18
2022-10-03T20:46:25.495Z,10.16
2022-10-03T20:49:21.828Z,10.14
2022-10-03T20:52:03.491Z,10.15
2022-10-03T20:54:48.526Z,10.14
2022-10-03T20:57:22.986Z,10.15
2022-10-03T21:00:04.505Z,10.16
2022-10-03T21:02:41.863Z,10.18
2022-10-03T21:05:23.873Z,10.20
2022-10-03T21:07:59.676Z,10.22
2022-10-03T21:10:34.887Z,10.22
2022-10-03T21:13:14.434Z,10.22
2022-10-03T21:15:50.997Z,10.21
2022-10-03T21:18:26.683Z,10.21
2022-10-03T21:21:08.982Z,10.21
2022-10-03T21:23:45.514Z,10.22
2022-10-03T21:26:25.178Z,10.24
2022-10-03T21:29:17.344Z,10.26
2022-10-03T21:31:59.188Z,10.26
2022-10-03T21:34:41.702Z,10.27
2022-10-03T21:37:23.622Z,10.29
2022-10-03T21:40:07.577Z,10.31
2022-10-03T21:42:49.176Z,10.35
2022-10-03T21:45:32.669Z,10.38
2022-10-03T21:48:13.329Z,10.39
2022-10-03T21:50:53.716Z,10.42
2022-10-03T21:53:32.134Z,10.45
2022-10-03T21:56:23.663Z,10.47
2022-10-03T21:59:19.065Z,10.48
2022-10-03T22:01:59.839Z,10.48
2022-10-03T22:04:41.028Z,10.48
2022-10-03T22:07:17.140Z,10.47
2022-10-03T22:09:56.142Z,10.46
2022-10-03T22:12:31.303Z,10.45
2022-10-03T22:15:10.674Z,10.46
2022-10-03T22:17:49.623Z,10.45
2022-10-03T22:20:23.893Z,10.45
2022-10-03T22:23:05.968Z,10.46
2022-10-03T22:25:52.817Z,10.47
2022-10-03T22:28:35.395Z,10.47
2022-10-03T22:31:14.699Z,10.48
2022-10-03T22:34:00.474Z,10.49
2022-10-03T22:36:34.488Z,10.51
2022-10-03T22:39:11.576Z,10.53
2022-10-03T22:41:46.815Z,10.55
2022-10-03T22:44:23.067Z,10.56
2022-10-03T22:46:57.921Z,10.59
2022-10-03T22:49:35.216Z,10.62
2022-10-03T22:52:10.176Z,10.64
2022-10-03T22:54:47.303Z,10.66
2022-10-03T22:57:20.252Z,10.68
2022-10-03T22:59:56.107Z,10.70
2022-10-03T23:02:34.979Z,10.72
2022-10-03T23:05:10.814Z,10.74
2022-10-03T23:07:57.655Z,10.75
2022-10-03T23:10:44.201Z,10.76
2022-10-03T23:13:30.517Z,10.77
2022-10-03T23:16:14.015Z,10.79
2022-10-03T23:19:04.769Z,10.78
2022-10-03T23:21:44.718Z,10.78
2022-10-03T23:24:24.289Z,10.78
2022-10-03T23:27:31.644Z,10.79
2022-10-03T23:30:34.305Z,10.79
2022-10-03T23:33:15.524Z,10.78
2022-10-03T23:35:49.651Z,10.76
2022-10-03T23:39:07.576Z,10.76
2022-10-03T23:41:57.165Z,10.74
2022-10-03T23:44:35.664Z,10.73
2022-10-03T23:47:13.351Z,10.73
2022-10-03T23:49:47.619Z,10.73
2022-10-03T23:52:25.072Z,10.73
2022-10-03T23:55:02.387Z,10.71
2022-10-03T23:57:38.699Z,10.70
